Liverpool, TX (77577)

5:56 PM CDT on March 26, 2015 (GMT -0500)
Danbury, TX | | Change Station
CLOSE
Current Station
Personal Weather Station
Location: Liverpool, TX
Elevation: 20 ft
Nearby Weather Stations
Active Advisory: Flood Warning Active Notice: Public Information Statement

Elev 20 ft 29.23 °N, 95.24 °W | Updated 56 minutes ago

Clear
Clear
66.8 °F
Feels Like 66.8 °F
N
14.0
Wind Variable Wind from NW
Gusts 21.0 mph

Today
High -- | Low -- °F
--% Chance of Precip.
Yesterday
High -- | Low -- °F
Precip. -- in
7:18 AM 7:35 PM
Waxing Crescent, 46% visible
Pressure 29.99 in
Visibility 10.0 miles
Clouds Clear
Dew Point 56 °F
Humidity 70%
Rainfall 0.00 in
Snow Depth Not available.
UV 2 out of 12
Pollen 9.00 out of 12
Air Quality Not available.
Flu Activity Not available.
METAR KLBX 262253Z AUTO 35010KT 10SM CLR 18/11 A2999 RMK AO2 SLP154 T01830106

More Conditions Fewer Conditions

Pressure 29.99 in
Visibility 10.0 miles
Clouds Clear
Dew Point 56 °F
Humidity 70%
Rainfall 0.00 in
Snow Depth Not available.
UV 2 out of 12
Pollen 9.00 out of 12
Air Quality Not available.
Flu Activity Not available.
METAR KLBX 262253Z AUTO 35010KT 10SM CLR 18/11 A2999 RMK AO2 SLP154 T01830106

More Conditions Fewer Conditions

10-Day Weather Forecast

Almanac

Astronomy

Mar. 26, 2015 Rise Set
Actual Time
Civil Twilight
Nautical Twilight
Astronomical Twilight
Moon
Length of Visible Light
Length of Day
Tomorrow will be .
, % of the Moon is Illuminated

Today's Extremes

State Highs State Lows

Community

WunderPhotos

Upload Photos

1,808,629 photos uploaded!

WunderBlogs® & News

Nearby

Air Quality

  Air Quality AQ Index Pollutant
Not available.

Snow Depth

Station Depth Elevation

Earthquake Activity

City Distance Mag. Time & Date
Minimum magnitude displayed is 2.5.

Coastal Water Temperatures

Place Temperature

Stations

Nearby Weather Stations

Station Location Temp. Windchill Dew Point Humidity Wind Precip. Elev Updated Type
                   
Flood Warning
Statement as of 2:24 PM CDT on March 26, 2015

The Flood Warning continues for
the San Bernard River near Boling
* until late tonight... or until the warning is canceled.
* At 2 PM Thursday the stage was 18.3 feet.
* Minor flooding is occurring.
* Flood stage is 18.0 feet.
* Forecast... the river is expected to fall to below flood stage overnight.
* At 18.0 feet... minor lowland flooding begins upstream from gage. Minor
backwater flooding up Peach Creek in Wharton County threatens lowlying areas.


Lat... Lon 2940 9592 2930 9584 2913 9566 2913 9577 2930 9595 2940 9605

                     flood observed forecast 12 PM
location stage stage day time Fri Sat sun Mon

San Bernard River
Boling 18 18.3 Thu 2 PM 15.8 12.7 10.6 8.9